»·PEaware :: N721AS KSBA-KBUR

N721AS :: KSBA-KBUR

FLIGHT INFORMATION

Flight Status: Arrived
Operator: Privately registered:
United States
More flights under this callsign
Pilot: Michael N. (17635)
Aircraft: CESSNA 172RG CUTLASS
(C72R)
More flights by this aircraft type
Origin: KSBA Santa Barbara Mun
United States
Destination: KBUR Bob Hope-Burbank
United States
More flights between these airports :: More routes between these airports
Route: +
File this flight plan on PilotEdge
Remarks: Cat8
Altitude:
(Current/Filed)
5,500ft
Speed:
(Current/Filed)
140kts
Departed: 08-Jan-18 10:09 PM
Arrived: 08-Jan-18 10:47 PM
Distance/Time
Traveled:
75nm/0:38
Distance/Time
To Go:
Arrived

Flight Plot

Page will automatically refresh every two minutes.


Map Options




Map Legend


Flown Route
Filed Route
Departure Airport
Arrival Airport
Navaid (VOR, NDB)
Fix

Horizontal Profiles

Position Reports

Time Latitude Longitude Heading Altitude Ground
Speed
08-Jan-18 22:05 34.431453 -119.832610 357 14ft 0kts
08-Jan-18 22:06 34.431453 -119.832610 357 14ft 0kts
08-Jan-18 22:07 34.431453 -119.832610 357 14ft 0kts
08-Jan-18 22:08 34.431453 -119.832610 357 14ft 0kts
08-Jan-18 22:09 34.431700 -119.832836 312 14ft 2kts
08-Jan-18 22:10 34.432608 -119.833271 352 14ft 2kts
08-Jan-18 22:11 34.431922 -119.836034 246 14ft 11kts
08-Jan-18 22:12 34.430841 -119.839416 242 14ft 9kts
08-Jan-18 22:13 34.430327 -119.840939 254 14ft 0kts
08-Jan-18 22:14 34.429936 -119.841359 161 14ft 7kts
08-Jan-18 22:15 34.413224 -119.835963 163 542ft 79kts
08-Jan-18 22:16 34.395786 -119.822604 75 1197ft 96kts
08-Jan-18 22:17 34.410322 -119.799525 41 1961ft 90kts
08-Jan-18 22:18 34.419368 -119.775376 103 2694ft 81kts
08-Jan-18 22:19 34.416260 -119.748006 101 3345ft 84kts
08-Jan-18 22:20 34.413178 -119.719512 106 3996ft 84kts
08-Jan-18 22:21 34.409309 -119.689606 102 4656ft 93kts
08-Jan-18 22:22 34.406300 -119.657661 106 5359ft 96kts
08-Jan-18 22:23 34.401918 -119.618051 106 5422ft 135kts
08-Jan-18 22:24 34.395965 -119.571773 105 5534ft 134kts
08-Jan-18 22:25 34.389099 -119.525848 107 5505ft 141kts
08-Jan-18 22:26 34.381988 -119.479082 106 5479ft 140kts
08-Jan-18 22:27 34.374673 -119.432891 109 5513ft 139kts
08-Jan-18 22:28 34.365466 -119.387263 114 5487ft 140kts
08-Jan-18 22:29 34.355232 -119.342129 105 5500ft 139kts
08-Jan-18 22:30 34.346880 -119.296217 112 5490ft 138kts
08-Jan-18 22:31 34.339076 -119.250751 105 5544ft 138kts
08-Jan-18 22:32 34.332777 -119.212168 108 5500ft 140kts
08-Jan-18 22:33 34.319743 -119.160324 104 5481ft 141kts
08-Jan-18 22:34 34.315502 -119.121520 101 5541ft 139kts
08-Jan-18 22:35 34.310610 -119.075026 104 5549ft 139kts
08-Jan-18 22:36 34.306272 -119.020017 100 5522ft 141kts
08-Jan-18 22:37 34.302181 -118.981247 97 5519ft 142kts
08-Jan-18 22:38 34.300059 -118.925902 102 5474ft 141kts
08-Jan-18 22:39 34.296130 -118.887239 96 5493ft 141kts
08-Jan-18 22:40 34.290644 -118.841011 106 5515ft 137kts
08-Jan-18 22:41 34.282941 -118.795591 106 5484ft 138kts
08-Jan-18 22:42 34.274668 -118.751009 107 5252ft 134kts
08-Jan-18 22:43 34.267509 -118.707118 104 4776ft 133kts
08-Jan-18 22:44 34.259742 -118.663539 105 4274ft 132kts
08-Jan-18 22:45 34.254869 -118.619517 103 3802ft 129kts
08-Jan-18 22:46 34.247577 -118.577493 109 3319ft 130kts
08-Jan-18 22:47 34.241004 -118.536001 105 3305ft 122kts
08-Jan-18 22:48 34.234268 -118.494965 104 3156ft 128kts
08-Jan-18 22:49 34.226190 -118.453412 112 3092ft 126kts
08-Jan-18 22:50 34.217242 -118.412730 102 3061ft 120kts
08-Jan-18 22:51 34.228852 -118.374572 81 2227ft 109kts
08-Jan-18 22:52 34.212557 -118.360508 168 901ft 56kts
08-Jan-18 22:53 34.206406 -118.357856 74 782ft 0kts
08-Jan-18 22:54 34.206507 -118.357600 171 782ft 5kts
08-Jan-18 22:55 34.204393 -118.359448 166 782ft 11kts
08-Jan-18 22:56 34.202176 -118.359786 183 782ft 0kts
08-Jan-18 22:57 34.202176 -118.359786 183 782ft 0kts
08-Jan-18 22:58 34.202176 -118.359786 183 782ft 0kts

Navigation Log

Ident Type
1. KSBA Airport
2. KBUR Airport